createdAt,value
2017-10-07T00:00:32.830Z,1002.89
2017-10-07T00:01:32.990Z,1002.97
2017-10-07T00:03:46.711Z,1002.96
2017-10-07T00:05:19.092Z,1003.05
2017-10-07T00:06:19.028Z,1003.08
2017-10-07T00:08:12.159Z,1003.06
2017-10-07T00:10:24.990Z,1003.04
2017-10-07T00:12:37.964Z,1003.10
2017-10-07T00:15:11.808Z,1003.15
2017-10-07T00:18:37.112Z,1003.12
2017-10-07T00:22:02.341Z,1003.07
2017-10-07T00:23:34.770Z,1003.02
2017-10-07T00:24:34.661Z,1003.07
2017-10-07T00:26:28.046Z,1003.09
2017-10-07T00:27:27.582Z,1003.13
2017-10-07T00:29:20.933Z,1003.12
2017-10-07T00:30:20.481Z,1003.09
2017-10-07T00:33:45.796Z,1003.08
2017-10-07T00:35:59.965Z,1003.05
2017-10-07T00:36:59.596Z,1003.06
2017-10-07T00:39:14.522Z,1003.04
2017-10-07T00:42:17.493Z,1003.10
2017-10-07T00:43:17.360Z,1003.07
2017-10-07T00:45:10.354Z,1003.06
2017-10-07T00:46:10.260Z,1003.04
2017-10-07T00:49:56.755Z,1003.05
2017-10-07T00:51:28.775Z,1003.01
2017-10-07T00:55:14.593Z,1003.03
2017-10-07T00:56:14.226Z,1003.05
2017-10-07T00:58:07.615Z,1003.10
2017-10-07T01:03:25.968Z,1003.06
2017-10-07T01:04:25.904Z,1003.04
2017-10-07T01:06:39.868Z,1003.10
2017-10-07T01:08:11.746Z,1003.10
2017-10-07T01:10:24.669Z,1003.13
2017-10-07T01:12:58.911Z,1003.13
2017-10-07T01:14:51.496Z,1003.15
2017-10-07T01:17:55.773Z,1003.16
2017-10-07T01:18:55.697Z,1003.09
2017-10-07T01:20:48.667Z,1003.10
2017-10-07T01:21:48.680Z,1003.06
2017-10-07T01:23:41.599Z,1003.08
2017-10-07T01:24:41.487Z,1003.10
2017-10-07T01:26:34.473Z,1003.12
2017-10-07T01:27:34.384Z,1003.07
2017-10-07T01:30:59.888Z,1003.10
2017-10-07T01:33:12.835Z,1003.11
2017-10-07T01:35:25.808Z,1003.17
2017-10-07T01:37:38.729Z,1003.20
2017-10-07T01:40:13.772Z,1003.22
2017-10-07T01:41:44.577Z,1003.15
2017-10-07T01:43:57.430Z,1003.17
2017-10-07T01:46:10.348Z,1003.09
2017-10-07T01:47:10.283Z,1003.11
2017-10-07T01:49:05.191Z,1003.14
2017-10-07T01:51:16.161Z,1003.14
2017-10-07T01:53:50.091Z,1003.11
2017-10-07T01:55:21.993Z,1003.11
2017-10-07T01:56:21.895Z,1003.13
2017-10-07T01:58:14.929Z,1003.16
2017-10-07T02:02:00.119Z,1003.14
2017-10-07T02:03:00.038Z,1003.13
2017-10-07T02:04:53.034Z,1003.10
2017-10-07T02:07:05.928Z,1003.12
2017-10-07T02:12:44.835Z,1003.14
2017-10-07T02:14:16.518Z,1003.18
2017-10-07T02:15:16.426Z,1003.25
2017-10-07T02:23:18.891Z,1003.29
2017-10-07T02:25:31.788Z,1003.27
2017-10-07T02:27:44.660Z,1003.21
2017-10-07T02:30:18.600Z,1003.25
2017-10-07T02:33:22.820Z,1003.19
2017-10-07T02:34:22.747Z,1003.19
2017-10-07T02:36:15.763Z,1003.16
2017-10-07T02:38:28.663Z,1003.14
2017-10-07T02:43:46.307Z,1003.05
2017-10-07T02:44:46.210Z,1003.03
2017-10-07T02:46:39.208Z,1002.97
2017-10-07T02:47:39.111Z,1003.03
2017-10-07T02:51:25.476Z,1003.06
2017-10-07T02:52:57.322Z,1003.05
2017-10-07T02:55:31.257Z,1003.02
2017-10-07T02:57:03.174Z,1003.00
2017-10-07T02:59:16.046Z,1002.98
2017-10-07T03:01:49.962Z,1003.03
2017-10-07T03:03:42.911Z,1003.03
2017-10-07T03:05:35.754Z,1003.05
2017-10-07T03:07:07.668Z,1003.04
2017-10-07T03:08:07.571Z,1003.07
2017-10-07T03:10:21.591Z,1002.99
2017-10-07T03:11:53.444Z,1003.02
2017-10-07T03:12:53.363Z,1002.99
2017-10-07T03:14:46.348Z,1003.00
2017-10-07T03:15:46.265Z,1003.04
2017-10-07T03:18:00.280Z,1003.00
2017-10-07T03:19:53.159Z,1003.01
2017-10-07T03:21:46.056Z,1003.01
2017-10-07T03:23:17.971Z,1003.01
2017-10-07T03:24:17.887Z,1002.98
2017-10-07T03:26:10.873Z,1003.00
2017-10-07T03:28:44.806Z,1002.99
2017-10-07T03:30:16.690Z,1002.99
2017-10-07T03:31:16.617Z,1002.97
2017-10-07T03:33:30.681Z,1002.92
2017-10-07T03:35:23.485Z,1002.96
2017-10-07T03:36:55.370Z,1002.95
2017-10-07T03:37:55.306Z,1002.98
2017-10-07T03:39:48.279Z,1003.00
2017-10-07T03:40:48.204Z,1003.01
2017-10-07T03:42:41.177Z,1003.02
2017-10-07T03:43:41.098Z,1002.99
2017-10-07T03:45:55.099Z,1002.92
2017-10-07T03:49:20.356Z,1002.91
2017-10-07T03:50:52.221Z,1002.95
2017-10-07T03:53:05.120Z,1002.95
2017-10-07T03:54:05.047Z,1002.96
2017-10-07T03:56:19.048Z,1002.97
2017-10-07T03:57:50.970Z,1002.96
2017-10-07T04:01:57.206Z,1003.00
2017-10-07T04:03:29.104Z,1003.00
2017-10-07T04:04:29.024Z,1003.04
2017-10-07T04:06:43.012Z,1003.05
2017-10-07T04:09:47.276Z,1003.04
2017-10-07T04:10:47.200Z,1003.04
2017-10-07T04:13:01.203Z,1003.06
2017-10-07T04:16:05.445Z,1003.10
2017-10-07T04:20:11.704Z,1003.15
2017-10-07T04:22:04.610Z,1003.14
2017-10-07T04:23:36.511Z,1003.11
2017-10-07T04:25:49.418Z,1003.17
2017-10-07T04:26:49.330Z,1003.19
2017-10-07T04:29:03.297Z,1003.19
2017-10-07T04:32:28.565Z,1003.18
2017-10-07T04:35:53.870Z,1003.21
2017-10-07T04:37:25.725Z,1003.28
2017-10-07T04:39:38.657Z,1003.30
2017-10-07T04:42:14.427Z,1003.26
2017-10-07T04:43:46.361Z,1003.31
2017-10-07T04:44:46.251Z,1003.29
2017-10-07T04:50:04.955Z,1003.33
2017-10-07T04:51:36.857Z,1003.39
2017-10-07T04:53:49.743Z,1003.42
2017-10-07T04:54:49.680Z,1003.41
2017-10-07T04:58:15.004Z,1003.44
2017-10-07T05:00:48.969Z,1003.44
2017-10-07T05:02:20.805Z,1003.43
2017-10-07T05:04:33.718Z,1003.40
2017-10-07T05:05:33.651Z,1003.43
2017-10-07T05:07:26.629Z,1003.45
2017-10-07T05:10:00.527Z,1003.42
2017-10-07T05:11:53.448Z,1003.48
2017-10-07T05:14:57.665Z,1003.39
2017-10-07T05:18:42.944Z,1003.41
2017-10-07T05:24:21.529Z,1003.36
2017-10-07T05:25:53.447Z,1003.37
2017-10-07T05:28:06.335Z,1003.35
2017-10-07T05:29:06.247Z,1003.37
2017-10-07T05:35:36.242Z,1003.38
2017-10-07T05:36:36.178Z,1003.36
2017-10-07T05:38:50.243Z,1003.47
2017-10-07T05:40:22.088Z,1003.44
2017-10-07T05:42:34.979Z,1003.43
2017-10-07T05:43:34.888Z,1003.46
2017-10-07T05:45:27.878Z,1003.42
2017-10-07T05:51:06.623Z,1003.34
2017-10-07T05:52:38.468Z,1003.35
2017-10-07T05:55:12.384Z,1003.35
2017-10-07T05:57:05.263Z,1003.37
2017-10-07T05:58:58.621Z,1003.40
2017-10-07T06:00:51.504Z,1003.30
2017-10-07T06:02:44.408Z,1003.33
2017-10-07T06:04:16.321Z,1003.35
2017-10-07T06:05:16.230Z,1003.35
2017-10-07T06:07:09.199Z,1003.35
2017-10-07T06:08:09.117Z,1003.32
2017-10-07T06:10:02.140Z,1003.36
2017-10-07T06:11:02.067Z,1003.38
2017-10-07T06:20:36.874Z,1003.31
2017-10-07T06:22:49.782Z,1003.36
2017-10-07T06:25:23.701Z,1003.41
2017-10-07T06:28:48.933Z,1003.35
2017-10-07T06:30:41.852Z,1003.29
2017-10-07T06:33:46.097Z,1003.30
2017-10-07T06:34:46.030Z,1003.34
2017-10-07T06:36:39.025Z,1003.34
2017-10-07T06:38:51.916Z,1003.39
2017-10-07T06:39:51.809Z,1003.39
2017-10-07T06:41:44.810Z,1003.33
2017-10-07T06:44:18.771Z,1003.33
2017-10-07T06:45:50.649Z,1003.38
2017-10-07T06:48:03.546Z,1003.33
2017-10-07T06:49:03.474Z,1003.32
2017-10-07T06:50:56.464Z,1003.32
2017-10-07T06:53:09.361Z,1003.30
2017-10-07T06:54:09.277Z,1003.32
2017-10-07T06:56:02.267Z,1003.29
2017-10-07T06:57:02.171Z,1003.28
2017-10-07T06:59:16.153Z,1003.25
2017-10-07T07:00:48.091Z,1003.31
2017-10-07T07:03:00.960Z,1003.34
2017-10-07T07:09:51.007Z,1003.39
2017-10-07T07:12:04.211Z,1003.35
2017-10-07T07:13:03.855Z,1003.35
2017-10-07T07:15:17.829Z,1003.34
2017-10-07T07:17:10.748Z,1003.37
2017-10-07T07:18:42.640Z,1003.33
2017-10-07T07:19:42.878Z,1003.35
2017-10-07T07:24:40.275Z,1003.36
2017-10-07T07:25:40.207Z,1003.33
2017-10-07T07:27:33.146Z,1003.31
2017-10-07T07:29:46.031Z,1003.25
2017-10-07T07:31:58.937Z,1003.30
2017-10-07T07:34:32.888Z,1003.34
2017-10-07T07:36:04.756Z,1003.31
2017-10-07T07:37:04.995Z,1003.35
2017-10-07T07:39:18.686Z,1003.31
2017-10-07T07:40:50.554Z,1003.33
2017-10-07T07:43:03.499Z,1003.43
2017-10-07T07:44:03.395Z,1003.51
2017-10-07T07:45:56.385Z,1003.44
2017-10-07T07:46:56.286Z,1003.45
2017-10-07T07:50:21.609Z,1003.46
2017-10-07T07:52:55.527Z,1003.50
2017-10-07T07:54:48.715Z,1003.48
2017-10-07T07:56:20.346Z,1003.48
2017-10-07T07:57:20.257Z,1003.49
2017-10-07T08:00:45.612Z,1003.46
2017-10-07T08:01:45.511Z,1003.40
2017-10-07T08:03:38.487Z,1003.46
2017-10-07T08:07:23.749Z,1003.52
2017-10-07T08:08:23.668Z,1003.51
2017-10-07T08:10:16.710Z,1003.54
2017-10-07T08:12:29.602Z,1003.51
2017-10-07T08:14:42.495Z,1003.54
2017-10-07T08:16:55.407Z,1003.46
2017-10-07T08:19:08.355Z,1003.47
2017-10-07T08:20:08.219Z,1003.45
2017-10-07T08:25:05.969Z,1003.53
2017-10-07T08:26:05.831Z,1003.52
2017-10-07T08:27:58.831Z,1003.52
2017-10-07T08:30:11.772Z,1003.56
2017-10-07T08:31:11.665Z,1003.57
2017-10-07T08:34:37.609Z,1003.52
2017-10-07T08:35:37.840Z,1003.46
2017-10-07T08:37:30.559Z,1003.54
2017-10-07T08:38:30.437Z,1003.48
2017-10-07T08:41:55.749Z,1003.47
2017-10-07T08:42:55.680Z,1003.46
2017-10-07T08:44:48.754Z,1003.47
2017-10-07T08:47:01.564Z,1003.43
2017-10-07T08:49:35.765Z,1003.38
2017-10-07T08:51:28.676Z,1003.41
2017-10-07T08:53:00.924Z,1003.40
2017-10-07T08:54:00.540Z,1003.35
2017-10-07T08:55:53.505Z,1003.33
2017-10-07T08:59:59.942Z,1003.38
2017-10-07T09:01:31.748Z,1003.32
2017-10-07T09:02:31.665Z,1003.28
2017-10-07T09:04:24.639Z,1003.25
2017-10-07T09:05:24.563Z,1003.24
2017-10-07T09:08:50.263Z,1003.18
2017-10-07T09:15:40.398Z,1003.11
2017-10-07T09:16:40.667Z,1003.07
2017-10-07T09:18:33.310Z,1003.07
2017-10-07T09:19:33.213Z,1003.09
2017-10-07T09:21:26.234Z,1003.06
2017-10-07T09:23:39.148Z,1002.98
2017-10-07T09:24:39.035Z,1002.88
2017-10-07T09:26:32.144Z,1002.92
2017-10-07T09:28:44.988Z,1002.86
2017-10-07T09:30:57.855Z,1002.84
2017-10-07T09:31:57.785Z,1002.81
2017-10-07T09:33:50.760Z,1002.74
2017-10-07T09:36:03.664Z,1002.74
2017-10-07T09:38:16.608Z,1002.79
2017-10-07T09:39:16.488Z,1002.83
2017-10-07T09:41:30.505Z,1002.70
2017-10-07T09:43:23.414Z,1002.82
2017-10-07T09:46:48.854Z,1002.77
2017-10-07T09:51:46.496Z,1002.67
2017-10-07T09:53:18.376Z,1002.66
2017-10-07T09:54:18.308Z,1002.58
2017-10-07T09:56:32.710Z,1002.67
2017-10-07T09:58:04.595Z,1002.56
2017-10-07T09:59:04.532Z,1002.53
2017-10-07T10:05:34.817Z,1002.39
2017-10-07T10:11:13.405Z,1002.33
2017-10-07T10:14:17.613Z,1002.31
2017-10-07T10:15:17.561Z,1002.36
2017-10-07T10:18:43.117Z,1002.41
2017-10-07T10:19:43.041Z,1002.38
2017-10-07T10:21:36.044Z,1002.22
2017-10-07T10:22:35.943Z,1002.24
2017-10-07T10:24:29.022Z,1002.31
2017-10-07T10:27:03.009Z,1002.29
2017-10-07T10:30:07.274Z,1002.16
2017-10-07T10:32:41.219Z,1002.13
2017-10-07T10:34:13.159Z,1002.21
2017-10-07T10:35:13.025Z,1002.15
2017-10-07T10:37:06.035Z,1002.13
2017-10-07T10:38:05.950Z,1002.13
2017-10-07T10:39:58.977Z,1002.04
2017-10-07T10:40:58.872Z,1001.99
2017-10-07T10:42:52.076Z,1001.96
2017-10-07T10:43:51.775Z,1002.04
2017-10-07T10:47:38.157Z,1001.97
2017-10-07T10:52:16.246Z,1001.89
2017-10-07T10:53:15.179Z,1001.85
2017-10-07T10:55:29.610Z,1001.80
2017-10-07T11:00:06.157Z,1001.79
2017-10-07T11:03:51.472Z,1001.73
2017-10-07T11:06:04.419Z,1001.68
2017-10-07T11:07:04.340Z,1001.59
2017-10-07T11:10:50.700Z,1001.52
2017-10-07T11:12:22.647Z,1001.61
2017-10-07T11:14:57.345Z,1001.43
2017-10-07T11:16:49.436Z,1001.42
2017-10-07T11:18:42.486Z,1001.38
2017-10-07T11:20:35.417Z,1001.31
2017-10-07T11:22:28.329Z,1001.42
2017-10-07T11:24:00.200Z,1001.42
2017-10-07T11:25:00.119Z,1001.35
2017-10-07T11:26:53.134Z,1001.26
2017-10-07T11:27:53.042Z,1001.29
2017-10-07T11:29:46.046Z,1001.18
2017-10-07T11:30:45.956Z,1001.19
2017-10-07T11:32:38.961Z,1001.18
2017-10-07T11:35:13.685Z,1001.16
2017-10-07T11:36:44.975Z,1000.97
2017-10-07T11:38:57.838Z,1000.94
2017-10-07T11:39:57.665Z,1000.83
2017-10-07T11:41:50.746Z,1000.66
2017-10-07T11:44:03.730Z,1000.71
2017-10-07T11:46:37.600Z,1000.72
2017-10-07T11:48:09.530Z,1000.71
2017-10-07T11:49:09.459Z,1000.66
2017-10-07T11:51:03.768Z,1000.70
2017-10-07T11:54:47.747Z,1000.81
2017-10-07T11:55:48.024Z,1000.79
2017-10-07T11:57:40.673Z,1000.72
2017-10-07T11:58:40.603Z,1000.67
2017-10-07T12:00:54.625Z,1000.70
2017-10-07T12:02:47.609Z,1000.59
2017-10-07T12:04:40.463Z,1000.52
2017-10-07T12:06:12.375Z,1000.52
2017-10-07T12:08:46.275Z,1000.54
2017-10-07T12:16:48.699Z,1000.44
2017-10-07T12:20:13.999Z,1000.31
2017-10-07T12:21:45.883Z,1000.33
2017-10-07T12:25:31.257Z,1000.24
2017-10-07T12:26:31.182Z,1000.22
2017-10-07T12:30:17.529Z,1000.17
2017-10-07T12:32:10.441Z,1000.15
2017-10-07T12:34:03.376Z,1000.11
2017-10-07T12:35:35.305Z,1000.12
2017-10-07T12:36:35.204Z,1000.09
2017-10-07T12:38:28.395Z,1000.06
2017-10-07T12:40:41.327Z,999.95
2017-10-07T12:42:54.041Z,999.96
2017-10-07T12:43:53.946Z,999.93
2017-10-07T12:46:08.004Z,999.93
2017-10-07T12:48:00.858Z,999.93
2017-10-07T12:49:32.782Z,999.92
2017-10-07T12:51:45.728Z,999.84
2017-10-07T12:52:45.666Z,999.85
2017-10-07T12:54:38.622Z,999.82
2017-10-07T12:55:38.546Z,999.83
2017-10-07T12:59:03.979Z,999.69
2017-10-07T13:01:37.932Z,999.60
2017-10-07T13:04:42.296Z,999.57
2017-10-07T13:08:27.714Z,999.50
2017-10-07T13:10:40.709Z,999.46
2017-10-07T13:13:14.634Z,999.41
2017-10-07T13:15:07.642Z,999.45
2017-10-07T13:18:11.950Z,999.34
2017-10-07T13:23:29.615Z,999.30
2017-10-07T13:24:29.568Z,999.29
2017-10-07T13:26:22.574Z,999.28
2017-10-07T13:28:35.501Z,999.24
2017-10-07T13:29:35.402Z,999.20
2017-10-07T13:31:28.417Z,999.24
2017-10-07T13:32:28.346Z,999.17
2017-10-07T13:34:21.842Z,999.21
2017-10-07T13:35:21.758Z,999.15
2017-10-07T13:37:14.758Z,999.13
2017-10-07T13:38:14.677Z,999.05
2017-10-07T13:45:05.791Z,999.03
2017-10-07T13:46:38.696Z,999.04
2017-10-07T13:48:50.662Z,999.01
2017-10-07T13:49:50.537Z,998.98
2017-10-07T13:51:43.523Z,998.97
2017-10-07T13:53:56.453Z,998.93
2017-10-07T13:59:35.114Z,998.96
2017-10-07T14:02:39.644Z,998.93
2017-10-07T14:05:13.336Z,998.88
2017-10-07T14:07:06.237Z,998.90
2017-10-07T14:10:10.536Z,998.83
2017-10-07T14:11:10.446Z,998.84
2017-10-07T14:13:03.487Z,998.80
2017-10-07T14:14:03.394Z,998.76
2017-10-07T14:15:56.422Z,998.74
2017-10-07T14:16:56.321Z,998.69
2017-10-07T14:20:21.663Z,998.70
2017-10-07T14:25:39.351Z,998.68
2017-10-07T14:26:39.591Z,998.67
2017-10-07T14:30:04.667Z,998.50
2017-10-07T14:32:17.547Z,998.43
2017-10-07T14:39:08.166Z,998.42
2017-10-07T14:41:21.564Z,998.41
2017-10-07T14:43:35.030Z,998.39
2017-10-07T14:44:34.331Z,998.32
2017-10-07T14:46:48.333Z,998.29
2017-10-07T14:49:53.213Z,998.26
2017-10-07T14:52:26.826Z,998.16
2017-10-07T14:53:58.709Z,998.18
2017-10-07T14:54:58.638Z,998.24
2017-10-07T14:57:12.631Z,998.20
2017-10-07T14:59:05.834Z,998.18
2017-10-07T15:00:37.857Z,998.21
2017-10-07T15:06:16.566Z,998.03
2017-10-07T15:07:48.433Z,997.98
2017-10-07T15:10:01.356Z,997.87
2017-10-07T15:11:01.290Z,997.88
2017-10-07T15:13:15.293Z,997.84
2017-10-07T15:16:19.591Z,997.70
2017-10-07T15:18:53.498Z,997.67
2017-10-07T15:20:25.417Z,997.63
2017-10-07T15:22:38.333Z,997.54
2017-10-07T15:23:38.267Z,997.58
2017-10-07T15:25:31.234Z,997.58
2017-10-07T15:28:05.192Z,997.53
2017-10-07T15:31:30.553Z,997.44
2017-10-07T15:36:07.128Z,997.35
2017-10-07T15:38:41.069Z,997.31
2017-10-07T15:40:34.001Z,997.23
2017-10-07T15:43:38.233Z,997.12
2017-10-07T15:45:51.157Z,997.13
2017-10-07T15:48:04.122Z,997.11
2017-10-07T15:49:04.016Z,997.12
2017-10-07T15:50:57.063Z,997.16
2017-10-07T15:55:03.322Z,997.16
2017-10-07T15:56:35.231Z,997.13
2017-10-07T16:00:20.512Z,997.11
2017-10-07T16:02:33.427Z,997.07
2017-10-07T16:05:07.446Z,997.05
2017-10-07T16:07:01.704Z,996.92
2017-10-07T16:08:32.218Z,996.92
2017-10-07T16:09:32.137Z,996.90
2017-10-07T16:12:57.638Z,996.89
2017-10-07T16:13:57.706Z,996.90
2017-10-07T16:17:44.194Z,996.86
2017-10-07T16:19:36.851Z,996.80
2017-10-07T16:21:29.948Z,996.76
2017-10-07T16:23:22.868Z,996.79
2017-10-07T16:25:15.782Z,996.83
2017-10-07T16:28:41.014Z,996.76
2017-10-07T16:30:12.958Z,996.76
2017-10-07T16:31:12.821Z,996.76
2017-10-07T16:33:26.786Z,996.72
2017-10-07T16:34:58.698Z,996.67
2017-10-07T16:37:11.644Z,996.73
2017-10-07T16:38:11.926Z,996.66
2017-10-07T16:40:25.644Z,996.71
2017-10-07T16:42:19.273Z,996.67
2017-10-07T16:43:50.406Z,996.74
2017-10-07T16:46:04.114Z,996.71
2017-10-07T16:53:14.451Z,996.61
2017-10-07T16:55:07.425Z,996.57
2017-10-07T16:56:39.322Z,996.58
2017-10-07T16:59:13.431Z,996.63
2017-10-07T17:00:45.231Z,996.62
2017-10-07T17:01:45.140Z,996.58
2017-10-07T17:03:38.123Z,996.56
2017-10-07T17:05:51.200Z,996.55
2017-10-07T17:08:04.018Z,996.51
2017-10-07T17:09:03.920Z,996.51
2017-10-07T17:11:17.933Z,996.52
2017-10-07T17:14:22.229Z,996.50
2017-10-07T17:16:56.247Z,996.49
2017-10-07T17:20:21.974Z,996.49
2017-10-07T17:23:26.442Z,996.37
2017-10-07T17:26:01.134Z,996.36
2017-10-07T17:27:54.145Z,996.35
2017-10-07T17:29:46.584Z,996.34
2017-10-07T17:31:18.775Z,996.35
2017-10-07T17:32:18.471Z,996.32
2017-10-07T17:34:32.552Z,996.32
2017-10-07T17:36:25.652Z,996.38
2017-10-07T17:37:57.604Z,996.36
2017-10-07T17:44:47.829Z,996.37
2017-10-07T17:47:00.681Z,996.28
2017-10-07T17:48:00.593Z,996.25
2017-10-07T17:49:53.636Z,996.16
2017-10-07T17:50:53.968Z,996.18
2017-10-07T17:52:46.566Z,996.16
2017-10-07T17:54:59.448Z,996.12
2017-10-07T17:58:44.768Z,996.06
2017-10-07T17:59:44.659Z,996.09
2017-10-07T18:01:37.971Z,996.05
2017-10-07T18:03:50.879Z,995.94
2017-10-07T18:06:03.797Z,995.90
2017-10-07T18:08:16.730Z,995.97
2017-10-07T18:10:29.626Z,996.02
2017-10-07T18:11:29.557Z,995.99
2017-10-07T18:13:43.621Z,995.92
2017-10-07T18:16:52.900Z,995.82
2017-10-07T18:19:26.917Z,995.82
2017-10-07T18:20:58.772Z,995.79
2017-10-07T18:21:58.744Z,995.81
2017-10-07T18:25:24.232Z,995.71
2017-10-07T18:26:23.985Z,995.68
2017-10-07T18:28:16.966Z,995.69
2017-10-07T18:29:16.915Z,995.70
2017-10-07T18:31:33.245Z,995.60
2017-10-07T18:34:58.508Z,995.53
2017-10-07T18:36:30.442Z,995.50
2017-10-07T18:39:04.391Z,995.50
2017-10-07T18:42:08.651Z,995.55
2017-10-07T18:43:08.568Z,995.51
2017-10-07T18:45:22.704Z,995.53
2017-10-07T18:47:15.547Z,995.50
2017-10-07T18:48:47.411Z,995.40
2017-10-07T18:49:47.334Z,995.41
2017-10-07T18:52:01.326Z,995.42
2017-10-07T18:53:54.295Z,995.35
2017-10-07T18:55:26.183Z,995.35
2017-10-07T18:56:26.141Z,995.35
2017-10-07T18:58:40.279Z,995.34
2017-10-07T19:00:11.999Z,995.31
2017-10-07T19:02:45.891Z,995.37
2017-10-07T19:04:17.794Z,995.32
2017-10-07T19:05:17.719Z,995.33
2017-10-07T19:07:10.782Z,995.34
2017-10-07T19:08:11.003Z,995.34
2017-10-07T19:11:57.052Z,995.32
2017-10-07T19:15:22.496Z,995.28
2017-10-07T19:17:15.278Z,995.24
2017-10-07T19:23:24.452Z,995.32
2017-10-07T19:24:24.254Z,995.36
2017-10-07T19:26:38.249Z,995.35
2017-10-07T19:28:10.273Z,995.25
2017-10-07T19:29:10.138Z,995.25
2017-10-07T19:31:03.164Z,995.23
2017-10-07T19:32:04.100Z,995.23
2017-10-07T19:35:28.438Z,995.22
2017-10-07T19:37:41.374Z,995.16
2017-10-07T19:38:41.262Z,995.17
2017-10-07T19:40:55.278Z,995.15
2017-10-07T19:42:48.212Z,995.07
2017-10-07T19:44:20.251Z,995.01
2017-10-07T19:45:20.169Z,995.09
2017-10-07T19:50:39.371Z,994.99
2017-10-07T19:52:11.325Z,995.08
2017-10-07T19:54:45.290Z,995.05
2017-10-07T19:56:17.233Z,995.06
2017-10-07T19:58:51.260Z,995.00
2017-10-07T20:00:44.130Z,995.00
2017-10-07T20:02:36.995Z,995.00
2017-10-07T20:04:09.039Z,994.95
2017-10-07T20:06:21.777Z,994.93
2017-10-07T20:07:21.690Z,994.94
2017-10-07T20:09:36.603Z,994.97
2017-10-07T20:11:08.614Z,995.00
2017-10-07T20:14:54.279Z,994.94
2017-10-07T20:15:54.253Z,994.91
2017-10-07T20:17:47.196Z,994.86
2017-10-07T20:20:00.114Z,994.85
2017-10-07T20:23:47.292Z,994.84
2017-10-07T20:25:58.797Z,994.87
2017-10-07T20:26:58.906Z,994.86
2017-10-07T20:28:51.644Z,994.84
2017-10-07T20:29:51.524Z,994.78
2017-10-07T20:34:49.474Z,994.70
2017-10-07T20:37:02.386Z,994.72
2017-10-07T20:39:15.373Z,994.71
2017-10-07T20:40:15.308Z,994.72
2017-10-07T20:42:08.378Z,994.69
2017-10-07T20:44:21.215Z,994.73
2017-10-07T20:45:21.107Z,994.67
2017-10-07T20:47:14.097Z,994.62
2017-10-07T20:48:14.051Z,994.67
2017-10-07T20:50:07.058Z,994.74
2017-10-07T20:51:06.955Z,994.70
2017-10-07T20:53:20.967Z,994.63
2017-10-07T20:54:52.859Z,994.59
2017-10-07T20:55:52.777Z,994.55
2017-10-07T20:57:45.780Z,994.59
2017-10-07T21:00:05.138Z,994.56
2017-10-07T21:02:13.213Z,994.57
2017-10-07T21:06:19.561Z,994.49
2017-10-07T21:10:56.216Z,994.45
2017-10-07T21:14:41.678Z,994.44
2017-10-07T21:15:41.540Z,994.40
2017-10-07T21:19:27.890Z,994.45
2017-10-07T21:21:20.834Z,994.40
2017-10-07T21:23:16.696Z,994.39
2017-10-07T21:24:48.621Z,994.39
2017-10-07T21:28:33.935Z,994.35
2017-10-07T21:30:47.342Z,994.37
2017-10-07T21:33:01.631Z,994.31
2017-10-07T21:34:00.910Z,994.30
2017-10-07T21:36:14.366Z,994.33
2017-10-07T21:40:50.886Z,994.32
2017-10-07T21:41:50.801Z,994.34
2017-10-07T21:45:16.366Z,994.24
2017-10-07T21:46:16.199Z,994.26
2017-10-07T21:48:09.261Z,994.20
2017-10-07T21:49:09.169Z,994.23
2017-10-07T21:51:23.131Z,994.17
2017-10-07T21:53:16.096Z,994.12
2017-10-07T21:54:47.923Z,994.03
2017-10-07T21:55:47.885Z,994.06
2017-10-07T22:02:39.024Z,994.18
2017-10-07T22:07:16.090Z,994.14
2017-10-07T22:09:29.191Z,994.08
2017-10-07T22:10:29.237Z,994.07
2017-10-07T22:12:43.217Z,993.99
2017-10-07T22:16:08.917Z,993.94
2017-10-07T22:17:40.350Z,993.95
2017-10-07T22:19:53.386Z,993.91
2017-10-07T22:25:32.807Z,993.88
2017-10-07T22:27:04.817Z,993.89
2017-10-07T22:28:04.739Z,993.82
2017-10-07T22:29:57.825Z,993.83
2017-10-07T22:32:10.761Z,993.84
2017-10-07T22:33:10.639Z,993.84
2017-10-07T22:35:03.638Z,993.80
2017-10-07T22:36:03.556Z,993.79
2017-10-07T22:37:56.856Z,993.75
2017-10-07T22:38:56.583Z,993.80
2017-10-07T22:41:10.601Z,993.87
2017-10-07T22:42:42.962Z,993.87
2017-10-07T22:46:28.133Z,993.80
2017-10-07T22:48:40.953Z,993.82
2017-10-07T22:49:40.851Z,993.78
2017-10-07T22:51:55.255Z,993.76
2017-10-07T22:53:48.632Z,993.70
2017-10-07T22:57:13.694Z,993.74
2017-10-07T23:03:22.840Z,993.71
2017-10-07T23:04:22.758Z,993.72
2017-10-07T23:06:15.750Z,993.75
2017-10-07T23:07:15.668Z,993.69
2017-10-07T23:09:08.714Z,993.72
2017-10-07T23:11:42.653Z,993.76
2017-10-07T23:13:14.587Z,993.78
2017-10-07T23:15:27.489Z,993.80
2017-10-07T23:17:40.428Z,993.76
2017-10-07T23:18:40.338Z,993.79
2017-10-07T23:20:54.351Z,993.79
2017-10-07T23:23:58.697Z,993.73
2017-10-07T23:27:48.111Z,993.74
2017-10-07T23:28:44.670Z,993.77
2017-10-07T23:30:37.741Z,993.74
2017-10-07T23:31:37.608Z,993.69
2017-10-07T23:33:30.628Z,993.65
2017-10-07T23:34:30.564Z,993.67
2017-10-07T23:36:23.509Z,993.63
2017-10-07T23:37:23.459Z,993.67
2017-10-07T23:39:37.449Z,993.62
2017-10-07T23:41:30.360Z,993.67
2017-10-07T23:43:02.286Z,993.62
2017-10-07T23:45:15.238Z,993.57
2017-10-07T23:47:28.149Z,993.56
2017-10-07T23:48:28.065Z,993.61
2017-10-07T23:54:58.164Z,993.64
2017-10-07T23:55:58.529Z,993.62
2017-10-07T23:57:51.090Z,993.63
